Time;durP1;ratioP1;P1;durP2;ratioP2;P2;SDS_P1;SDS_P2;PMS_P1;PMS_P2;Temp;Humidity;BMP_temperature;BMP_pressure;BME280_temperature;BME280_humidity;BME280_pressure;Samples;Min_cycle;Max_cycle;Signal;HPM_P1;HPM_P2
2023/07/28 00:01:35;;;;;;;1.88;1.33;;;14.60;99.90;;;;;;4956690;28;20023;-76
2023/07/28 00:04:02;;;;;;;1.65;1.55;;;14.60;99.90;;;;;;4974204;28;20113;-77
2023/07/28 00:06:28;;;;;;;2.83;1.48;;;14.60;99.90;;;;;;4956550;28;20041;-77
2023/07/28 00:08:54;;;;;;;2.70;1.40;;;14.50;99.90;;;;;;4956292;28;20041;-79
2023/07/28 00:11:20;;;;;;;1.25;1.15;;;14.50;99.90;;;;;;4973871;28;20046;-77
2023/07/28 00:13:46;;;;;;;2.38;1.83;;;14.60;99.90;;;;;;4974596;28;20471;-78
2023/07/28 00:16:12;;;;;;;2.67;1.67;;;14.60;99.90;;;;;;4958726;28;20503;-78
2023/07/28 00:18:38;;;;;;;2.28;1.60;;;14.50;99.90;;;;;;4976485;28;20069;-77
2023/07/28 00:21:05;;;;;;;1.38;1.20;;;14.60;99.90;;;;;;4974132;28;20441;-77
2023/07/28 00:23:31;;;;;;;1.92;1.83;;;14.60;99.90;;;;;;4956104;28;20027;-77
2023/07/28 00:25:57;;;;;;;0.90;0.90;;;14.60;99.90;;;;;;4973327;28;20395;-78
2023/07/28 00:28:22;;;;;;;1.70;1.60;;;14.50;99.90;;;;;;4973367;28;20046;-77
2023/07/28 00:30:51;;;;;;;2.10;1.48;;;14.60;99.90;;;;;;4973656;28;20037;-78
2023/07/28 00:33:17;;;;;;;1.52;1.42;;;14.60;99.90;;;;;;4973531;28;20027;-79
2023/07/28 00:35:43;;;;;;;2.00;1.50;;;14.60;99.90;;;;;;4972833;28;20023;-78
2023/07/28 00:38:09;;;;;;;2.35;1.70;;;14.60;99.90;;;;;;4972578;28;20074;-79
2023/07/28 00:40:36;;;;;;;1.48;1.38;;;14.60;99.90;;;;;;4973546;28;20066;-77
2023/07/28 00:43:02;;;;;;;1.38;1.27;;;14.70;99.90;;;;;;4974116;28;20267;-78
2023/07/28 00:45:29;;;;;;;3.40;1.52;;;14.80;99.90;;;;;;4973565;28;20476;-78
2023/07/28 00:47:57;;;;;;;2.25;1.73;;;14.90;99.90;;;;;;4973430;28;20023;-78
2023/07/28 00:50:24;;;;;;;1.35;1.25;;;14.90;99.90;;;;;;4971994;28;20027;-78
2023/07/28 00:52:50;;;;;;;1.27;1.17;;;15.00;99.90;;;;;;4955570;28;20031;-77
2023/07/28 00:55:16;;;;;;;1.30;1.20;;;15.10;99.90;;;;;;4973053;28;20030;-77
2023/07/28 00:57:42;;;;;;;2.03;1.60;;;15.00;99.90;;;;;;4956336;28;20282;-78
2023/07/28 01:00:08;;;;;;;2.20;1.38;;;15.00;99.90;;;;;;4956354;28;20279;-78
2023/07/28 01:02:35;;;;;;;1.58;1.23;;;15.00;99.90;;;;;;4972598;28;20448;-79
2023/07/28 01:05:01;;;;;;;3.33;1.67;;;14.90;99.90;;;;;;4972702;28;20027;-78
2023/07/28 01:07:36;;;;;;;1.85;1.50;;;14.90;99.90;;;;;;4954827;28;20089;-78
2023/07/28 01:10:06;;;;;;;1.85;1.60;;;14.90;99.90;;;;;;4955705;28;20560;-77
2023/07/28 01:12:32;;;;;;;1.40;1.30;;;15.10;99.90;;;;;;4957450;28;20368;-78
2023/07/28 01:14:57;;;;;;;2.42;1.40;;;15.20;99.90;;;;;;4974984;28;20034;-77
2023/07/28 01:17:26;;;;;;;2.55;1.80;;;15.20;99.90;;;;;;4957333;28;20487;-78
2023/07/28 01:19:52;;;;;;;1.85;1.45;;;15.20;99.90;;;;;;4957469;28;20045;-78
2023/07/28 01:22:36;;;;;;;3.42;1.55;;;15.30;99.90;;;;;;4955033;28;20109;-78
2023/07/28 01:25:09;;;;;;;1.55;1.45;;;15.50;99.90;;;;;;4972577;28;20074;-78
2023/07/28 01:27:37;;;;;;;3.50;1.90;;;15.60;99.90;;;;;;4972332;28;20073;-78
2023/07/28 01:30:03;;;;;;;3.63;1.45;;;15.80;99.90;;;;;;4954876;28;20290;-77
2023/07/28 01:32:29;;;;;;;4.30;1.63;;;15.90;99.90;;;;;;4972330;28;20023;-78
2023/07/28 01:34:54;;;;;;;4.07;1.60;;;15.90;99.90;;;;;;4954342;28;20108;-78
2023/07/28 01:37:20;;;;;;;3.53;1.90;;;15.80;99.90;;;;;;4954938;28;20042;-78
2023/07/28 01:39:45;;;;;;;2.08;1.58;;;15.80;99.90;;;;;;4956435;28;20033;-78
2023/07/28 01:42:11;;;;;;;1.67;1.52;;;15.60;99.90;;;;;;4955180;28;20030;-77
2023/07/28 01:44:38;;;;;;;1.38;1.27;;;15.40;99.90;;;;;;4955593;28;20062;-78
2023/07/28 01:47:04;;;;;;;2.95;1.80;;;15.40;99.90;;;;;;4955844;28;20435;-77
2023/07/28 01:49:29;;;;;;;4.15;1.27;;;15.50;99.90;;;;;;4973020;28;20023;-77
2023/07/28 01:51:55;;;;;;;1.98;1.20;;;15.70;99.90;;;;;;4972007;28;20027;-78
2023/07/28 01:54:21;;;;;;;3.75;1.67;;;15.90;99.90;;;;;;4971503;28;20066;-77
2023/07/28 01:56:46;;;;;;;1.27;1.08;;;15.80;99.90;;;;;;4971303;28;20106;-77
2023/07/28 01:59:13;;;;;;;1.30;1.20;;;15.90;99.90;;;;;;4971069;28;20121;-78
2023/07/28 02:01:39;;;;;;;2.22;1.50;;;16.00;99.90;;;;;;4956462;28;20085;-78
2023/07/28 02:04:05;;;;;;;3.45;1.33;;;15.90;99.90;;;;;;4972230;28;20046;-77
2023/07/28 02:06:31;;;;;;;2.63;1.33;;;16.00;99.90;;;;;;4955238;28;20023;-78
2023/07/28 02:08:57;;;;;;;1.63;1.23;;;16.00;99.90;;;;;;4973778;28;20122;-77
2023/07/28 02:11:22;;;;;;;7.13;1.70;;;16.00;99.90;;;;;;4955802;28;20496;-78
2023/07/28 02:13:48;;;;;;;2.35;1.35;;;15.90;99.90;;;;;;4972468;28;20022;-78
2023/07/28 02:16:13;;;;;;;1.48;1.38;;;15.80;99.90;;;;;;4971759;28;20037;-77
2023/07/28 02:18:39;;;;;;;2.75;1.27;;;15.70;99.90;;;;;;4954603;28;20049;-78
2023/07/28 02:21:07;;;;;;;1.58;1.33;;;15.70;99.90;;;;;;4972935;28;20038;-78
2023/07/28 02:23:33;;;;;;;1.67;1.20;;;15.70;99.90;;;;;;4955455;28;20035;-77
2023/07/28 02:25:58;;;;;;;1.95;1.42;;;15.60;99.90;;;;;;4973351;28;20146;-78
2023/07/28 02:28:24;;;;;;;1.05;1.05;;;15.70;99.90;;;;;;4971919;28;20495;-77
2023/07/28 02:30:50;;;;;;;3.92;1.08;;;15.70;99.90;;;;;;4970595;28;20035;-78
2023/07/28 02:33:15;;;;;;;1.30;1.20;;;15.70;99.90;;;;;;4953144;28;20054;-77
2023/07/28 02:35:41;;;;;;;1.85;1.17;;;15.80;99.90;;;;;;4970479;28;20411;-77
2023/07/28 02:38:07;;;;;;;1.25;1.08;;;15.90;99.90;;;;;;4953390;28;20066;-77
2023/07/28 02:40:33;;;;;;;1.20;1.08;;;15.90;99.90;;;;;;4970457;28;20051;-78
2023/07/28 02:42:59;;;;;;;1.70;1.40;;;15.90;99.90;;;;;;4953455;28;20031;-79
2023/07/28 02:45:24;;;;;;;1.50;1.40;;;15.90;99.90;;;;;;4954132;28;20023;-78
2023/07/28 02:47:50;;;;;;;4.85;1.50;;;15.80;99.90;;;;;;4954814;28;20118;-78
2023/07/28 02:50:16;;;;;;;1.48;1.10;;;15.60;99.90;;;;;;4970950;28;20069;-78
2023/07/28 02:52:42;;;;;;;1.23;1.13;;;15.60;99.90;;;;;;4953349;28;20043;-77
2023/07/28 02:55:08;;;;;;;1.65;1.15;;;15.50;99.90;;;;;;4971979;28;20065;-77
2023/07/28 02:57:34;;;;;;;1.23;1.13;;;15.50;99.90;;;;;;4970687;28;20045;-77
2023/07/28 02:59:59;;;;;;;1.08;1.05;;;15.40;99.90;;;;;;4953456;28;20030;-77
2023/07/28 03:02:25;;;;;;;1.40;1.10;;;15.40;99.90;;;;;;4954214;28;20022;-77
2023/07/28 03:04:50;;;;;;;1.85;1.75;;;15.40;99.90;;;;;;4953028;28;20492;-77
2023/07/28 03:07:17;;;;;;;1.75;1.35;;;15.30;99.90;;;;;;4952550;28;20019;-77
2023/07/28 03:09:43;;;;;;;1.85;1.50;;;15.30;99.90;;;;;;4970297;28;20129;-77
2023/07/28 03:12:09;;;;;;;5.72;1.33;;;15.30;99.90;;;;;;4970096;28;20615;-77
2023/07/28 03:14:34;;;;;;;2.13;1.42;;;15.20;99.90;;;;;;4953317;28;20027;-78
2023/07/28 03:17:00;;;;;;;2.30;1.77;;;15.20;99.90;;;;;;4971120;28;20081;-77
2023/07/28 03:19:26;;;;;;;1.75;1.30;;;15.20;99.90;;;;;;4971472;28;20110;-77
2023/07/28 03:21:51;;;;;;;1.38;1.27;;;15.10;99.90;;;;;;4953035;28;20524;-77
2023/07/28 03:24:17;;;;;;;1.92;1.55;;;15.10;99.90;;;;;;4952646;28;20027;-78
2023/07/28 03:26:42;;;;;;;1.33;1.17;;;15.10;99.90;;;;;;4973041;28;20027;-78
2023/07/28 03:29:08;;;;;;;2.03;1.35;;;15.10;99.90;;;;;;4975045;28;20055;-77
2023/07/28 03:31:35;;;;;;;2.70;1.30;;;15.00;99.90;;;;;;4956844;28;20479;-77
2023/07/28 03:34:02;;;;;;;18.10;2.28;;;15.00;99.90;;;;;;4956848;28;20037;-77
2023/07/28 03:36:28;;;;;;;1.92;1.70;;;14.90;99.90;;;;;;4974584;28;20023;-78
2023/07/28 03:38:53;;;;;;;2.47;1.55;;;14.90;99.90;;;;;;4956978;28;20045;-77
2023/07/28 03:41:19;;;;;;;1.10;1.05;;;14.80;99.90;;;;;;4957099;28;20391;-79
2023/07/28 03:43:46;;;;;;;2.33;1.45;;;14.80;99.90;;;;;;4974560;28;20484;-77
2023/07/28 03:46:11;;;;;;;1.50;1.40;;;14.80;99.90;;;;;;4974501;28;20039;-78
2023/07/28 03:48:37;;;;;;;2.47;1.60;;;14.80;99.90;;;;;;4957254;28;20031;-78
2023/07/28 03:51:03;;;;;;;1.90;1.65;;;14.80;99.90;;;;;;4957223;28;20031;-77
2023/07/28 03:53:28;;;;;;;1.77;1.30;;;14.70;99.90;;;;;;4974171;28;20506;-78
2023/07/28 03:55:57;;;;;;;1.77;1.67;;;14.70;99.90;;;;;;4957112;28;20074;-77
2023/07/28 03:58:24;;;;;;;2.35;1.95;;;14.60;99.90;;;;;;4957348;28;20054;-77
2023/07/28 04:00:51;;;;;;;1.48;1.38;;;14.60;99.90;;;;;;4957363;28;20514;-78
2023/07/28 04:03:17;;;;;;;1.60;1.50;;;14.60;99.90;;;;;;4965080;28;20026;-77
2023/07/28 04:05:43;;;;;;;2.45;1.45;;;14.60;99.90;;;;;;4957894;28;20050;-78
2023/07/28 04:08:08;;;;;;;8.82;1.35;;;14.60;99.90;;;;;;4959392;28;20514;-77
2023/07/28 04:10:34;;;;;;;2.03;1.13;;;14.60;99.90;;;;;;4976108;28;20034;-79
2023/07/28 04:12:59;;;;;;;2.47;1.85;;;14.60;99.90;;;;;;4956319;28;20030;-78
2023/07/28 04:15:25;;;;;;;3.55;1.88;;;14.70;99.90;;;;;;4973240;28;20480;-78
2023/07/28 04:17:51;;;;;;;2.70;1.40;;;14.70;99.90;;;;;;4973233;28;20089;-78
2023/07/28 04:20:16;;;;;;;2.60;1.40;;;14.70;99.90;;;;;;4973352;28;20547;-78
2023/07/28 04:22:42;;;;;;;1.35;1.13;;;14.80;99.90;;;;;;4973216;28;20109;-78
2023/07/28 04:25:08;;;;;;;1.77;1.30;;;14.80;99.90;;;;;;4973289;28;20025;-77
2023/07/28 04:27:33;;;;;;;2.20;1.80;;;14.90;99.90;;;;;;4955245;28;20411;-78
2023/07/28 04:29:59;;;;;;;2.17;1.90;;;14.90;99.90;;;;;;4955538;28;20108;-77
2023/07/28 04:32:25;;;;;;;4.38;1.67;;;15.00;99.90;;;;;;4973093;28;20038;-78
2023/07/28 04:34:51;;;;;;;2.20;1.55;;;15.10;99.90;;;;;;4973439;28;20015;-77
2023/07/28 04:37:17;;;;;;;3.15;1.58;;;15.20;99.90;;;;;;4954417;28;20502;-77
2023/07/28 04:39:43;;;;;;;3.53;2.05;;;15.30;99.90;;;;;;4973011;28;20043;-78
2023/07/28 04:42:09;;;;;;;2.05;1.60;;;15.50;99.90;;;;;;4972887;28;20057;-78
2023/07/28 04:44:36;;;;;;;1.85;1.42;;;15.60;99.90;;;;;;4972241;28;20093;-77
2023/07/28 04:47:01;;;;;;;1.90;1.58;;;15.90;99.90;;;;;;4972333;28;20034;-78
2023/07/28 04:49:27;;;;;;;2.10;1.48;;;16.10;99.90;;;;;;4972179;28;20380;-77
2023/07/28 04:51:53;;;;;;;2.08;1.27;;;16.20;99.90;;;;;;4972125;28;20074;-78
2023/07/28 04:54:18;;;;;;;1.67;1.58;;;16.40;99.90;;;;;;4971782;28;20082;-79
2023/07/28 04:56:45;;;;;;;2.08;1.42;;;16.60;99.90;;;;;;4971958;28;20037;-77
2023/07/28 04:59:10;;;;;;;1.58;1.48;;;16.90;99.90;;;;;;4972058;28;20387;-78
2023/07/28 05:01:36;;;;;;;1.13;0.90;;;17.10;99.90;;;;;;4954560;28;20686;-77
2023/07/28 05:04:02;;;;;;;1.48;1.30;;;17.20;99.90;;;;;;4954429;28;20027;-77
2023/07/28 05:06:27;;;;;;;1.63;1.40;;;17.30;99.90;;;;;;4954333;28;20094;-77
2023/07/28 05:08:53;;;;;;;1.73;1.63;;;17.40;99.90;;;;;;4953881;28;20034;-77
2023/07/28 05:11:19;;;;;;;3.22;1.25;;;17.50;99.90;;;;;;4971760;28;20061;-78
2023/07/28 05:13:44;;;;;;;1.90;1.55;;;17.60;99.90;;;;;;4954685;28;20154;-78
2023/07/28 05:16:10;;;;;;;8.30;5.63;;;17.80;99.90;;;;;;4971539;28;20475;-77
2023/07/28 05:18:36;;;;;;;6.15;2.13;;;18.10;99.90;;;;;;4971705;28;20058;-77
2023/07/28 05:21:02;;;;;;;3.00;2.17;;;18.20;99.90;;;;;;4971680;28;20022;-78
2023/07/28 05:23:28;;;;;;;3.35;1.95;;;18.20;99.90;;;;;;4953549;28;20054;-78
2023/07/28 05:25:53;;;;;;;5.20;2.63;;;18.40;99.90;;;;;;4971600;28;20388;-78
2023/07/28 05:28:19;;;;;;;1.75;1.30;;;18.50;99.90;;;;;;4953872;28;20510;-77
2023/07/28 05:30:45;;;;;;;2.00;1.27;;;18.40;99.90;;;;;;4971438;28;20101;-77
2023/07/28 05:33:10;;;;;;;4.18;3.17;;;18.30;99.90;;;;;;4954033;28;20034;-78
2023/07/28 05:35:36;;;;;;;1.92;1.23;;;18.30;99.90;;;;;;4971220;28;20023;-77
2023/07/28 05:38:02;;;;;;;1.65;1.30;;;18.40;99.90;;;;;;4953364;28;20038;-78
2023/07/28 05:40:31;;;;;;;1.88;1.50;;;18.20;99.90;;;;;;4953670;28;20106;-78
2023/07/28 05:42:56;;;;;;;3.17;1.23;;;18.20;99.90;;;;;;4953411;28;20022;-78
2023/07/28 05:45:22;;;;;;;2.85;1.20;;;18.10;99.90;;;;;;4954056;28;20034;-78
2023/07/28 05:47:48;;;;;;;2.92;1.15;;;18.10;99.90;;;;;;4970637;28;20502;-78
2023/07/28 05:50:13;;;;;;;1.80;1.25;;;18.10;99.90;;;;;;4970765;28;20093;-77
2023/07/28 05:52:39;;;;;;;2.53;1.48;;;18.20;99.90;;;;;;4953318;28;20057;-77
2023/07/28 05:55:05;;;;;;;4.70;0.90;;;18.20;99.90;;;;;;4953496;28;20499;-78
2023/07/28 05:57:31;;;;;;;1.23;1.13;;;18.30;99.90;;;;;;4953294;28;20031;-77
2023/07/28 05:59:56;;;;;;;2.50;1.30;;;18.50;99.90;;;;;;4953534;28;20031;-78
2023/07/28 06:02:22;;;;;;;1.10;1.10;;;18.80;99.90;;;;;;4953257;28;20026;-78
2023/07/28 06:04:48;;;;;;;3.83;1.35;;;19.00;99.90;;;;;;4970761;28;20393;-77
2023/07/28 06:07:13;;;;;;;3.65;2.78;;;19.20;99.90;;;;;;4952939;28;20540;-77
2023/07/28 06:09:39;;;;;;;1.52;1.42;;;19.50;99.90;;;;;;4953344;28;20022;-78
2023/07/28 06:12:05;;;;;;;1.52;0.82;;;19.70;99.90;;;;;;4970844;28;20027;-78
2023/07/28 06:14:30;;;;;;;0.80;0.80;;;19.80;99.90;;;;;;4953299;28;20029;-78
2023/07/28 06:16:56;;;;;;;2.88;1.27;;;19.90;99.90;;;;;;4970712;28;20031;-78
2023/07/28 06:19:23;;;;;;;1.05;1.00;;;20.20;99.90;;;;;;4970341;28;20045;-78
2023/07/28 06:21:52;;;;;;;19.75;1.60;;;20.50;99.90;;;;;;4952752;28;20026;-78
2023/07/28 06:24:19;;;;;;;1.98;1.45;;;20.90;99.90;;;;;;4970722;28;20038;-77
2023/07/28 06:26:45;;;;;;;1.17;0.93;;;21.20;99.90;;;;;;4970613;28;20023;-77
2023/07/28 06:29:10;;;;;;;1.98;1.00;;;21.50;99.90;;;;;;4952819;28;20385;-78
2023/07/28 06:31:36;;;;;;;1.77;1.65;;;21.70;99.90;;;;;;4953098;28;20026;-77
2023/07/28 06:34:01;;;;;;;1.33;1.23;;;21.90;99.90;;;;;;4970520;28;20421;-77
2023/07/28 06:36:27;;;;;;;3.53;1.30;;;22.10;99.90;;;;;;4970162;28;20034;-78
2023/07/28 06:38:55;;;;;;;1.58;0.80;;;22.30;99.90;;;;;;4952549;28;20042;-78
2023/07/28 06:41:21;;;;;;;1.13;1.02;;;22.50;99.90;;;;;;4952872;28;20452;-78
2023/07/28 06:43:48;;;;;;;2.85;1.30;;;23.00;99.90;;;;;;4952971;28;20488;-77
2023/07/28 06:46:14;;;;;;;1.15;1.00;;;23.30;99.90;;;;;;4952914;28;20146;-77
2023/07/28 06:48:40;;;;;;;1.08;1.00;;;23.40;99.90;;;;;;4970568;28;20058;-77
2023/07/28 06:51:06;;;;;;;1.45;1.35;;;23.30;99.90;;;;;;4952921;28;20019;-78
2023/07/28 06:53:32;;;;;;;1.40;0.82;;;23.20;99.90;;;;;;4952271;28;20029;-77
2023/07/28 06:55:58;;;;;;;1.88;1.33;;;23.10;99.90;;;;;;4970493;28;20047;-78
2023/07/28 06:58:23;;;;;;;3.08;1.40;;;23.10;99.90;;;;;;4976602;28;20042;-78
2023/07/28 07:00:49;;;;;;;1.25;0.90;;;23.00;99.90;;;;;;4959992;28;20038;-78
2023/07/28 07:03:14;;;;;;;4.75;3.10;;;22.90;99.90;;;;;;4974289;28;20054;-78
2023/07/28 07:05:40;;;;;;;3.55;1.40;;;22.90;99.90;;;;;;4956889;28;20022;-78
2023/07/28 07:08:06;;;;;;;7.63;2.80;;;22.90;99.90;;;;;;4956442;28;20557;-78
2023/07/28 07:10:31;;;;;;;1.30;1.20;;;23.10;99.90;;;;;;4974016;28;20218;-78
2023/07/28 07:12:57;;;;;;;18.83;11.88;;;24.20;99.90;;;;;;4973777;28;20473;-78
2023/07/28 07:15:23;;;;;;;3.47;1.75;;;25.10;99.90;;;;;;4956402;28;20380;-78
2023/07/28 07:17:48;;;;;;;1.88;1.40;;;26.30;96.90;;;;;;4956436;28;20078;-78
2023/07/28 07:20:15;;;;;;;1.45;1.20;;;27.50;93.80;;;;;;4974012;28;20027;-78
2023/07/28 07:22:41;;;;;;;3.08;1.83;;;28.30;90.20;;;;;;4973997;28;20027;-78
2023/07/28 07:25:07;;;;;;;3.25;1.65;;;29.40;85.00;;;;;;4973761;28;20105;-78
2023/07/28 07:27:33;;;;;;;1.38;1.20;;;29.40;80.00;;;;;;4956254;28;20031;-79
2023/07/28 07:29:59;;;;;;;1.40;1.30;;;28.90;79.40;;;;;;4956206;28;20153;-78
2023/07/28 07:32:24;;;;;;;1.23;1.15;;;28.40;79.20;;;;;;4973501;28;20081;-77
2023/07/28 07:34:50;;;;;;;1.20;1.10;;;28.40;80.20;;;;;;4956201;28;20372;-78
2023/07/28 07:37:15;;;;;;;1.20;1.10;;;27.90;79.50;;;;;;4955899;28;20023;-78
2023/07/28 07:39:43;;;;;;;0.70;0.70;;;27.30;81.60;;;;;;4956400;28;20038;-78
2023/07/28 07:42:10;;;;;;;1.20;1.20;;;26.80;84.20;;;;;;4956048;28;20019;-78
2023/07/28 07:44:35;;;;;;;1.25;1.15;;;26.90;84.70;;;;;;4955930;28;20090;-78
2023/07/28 07:47:11;;;;;;;1.33;1.20;;;26.90;83.50;;;;;;4973161;28;20472;-78
2023/07/28 07:49:36;;;;;;;2.22;1.10;;;26.20;85.80;;;;;;4955908;28;20034;-78
2023/07/28 07:52:02;;;;;;;2.72;1.23;;;25.80;85.80;;;;;;4972782;28;20031;-78
2023/07/28 07:54:27;;;;;;;1.10;1.10;;;25.20;88.90;;;;;;4955999;28;20094;-78
2023/07/28 07:56:53;;;;;;;2.20;1.30;;;25.50;88.90;;;;;;4973685;28;20055;-78
2023/07/28 07:59:19;;;;;;;1.02;0.80;;;25.80;87.70;;;;;;4973050;28;20042;-78
2023/07/28 08:01:44;;;;;;;1.67;1.40;;;26.20;88.60;;;;;;4955744;28;20431;-78
2023/07/28 08:04:10;;;;;;;2.00;1.50;;;27.00;85.20;;;;;;4972905;28;20074;-78
2023/07/28 08:06:36;;;;;;;3.55;1.50;;;27.60;82.50;;;;;;4955586;28;20030;-78
2023/07/28 08:09:02;;;;;;;1.58;1.00;;;28.10;83.50;;;;;;4955389;28;20027;-78
2023/07/28 08:11:28;;;;;;;2.15;1.05;;;27.80;82.80;;;;;;4972042;28;20022;-78
2023/07/28 08:13:55;;;;;;;1.30;1.20;;;28.70;80.70;;;;;;4972678;28;20344;-78
2023/07/28 08:16:20;;;;;;;1.42;1.10;;;27.80;83.70;;;;;;4955510;28;20546;-78
2023/07/28 08:18:46;;;;;;;1.05;1.00;;;27.30;83.70;;;;;;4972871;28;20043;-78
2023/07/28 08:21:12;;;;;;;1.60;1.10;;;27.20;81.40;;;;;;4955343;28;20089;-78
2023/07/28 08:23:37;;;;;;;1.35;1.08;;;28.10;79.90;;;;;;4972718;28;20337;-78
2023/07/28 08:26:03;;;;;;;3.40;1.30;;;29.00;79.10;;;;;;4955152;28;20456;-78
2023/07/28 08:28:29;;;;;;;2.35;1.15;;;28.30;78.80;;;;;;4955174;28;20043;-78
2023/07/28 08:30:56;;;;;;;1.55;1.45;;;28.60;78.40;;;;;;4972618;28;20023;-78
2023/07/28 08:33:22;;;;;;;1.23;1.13;;;28.70;78.00;;;;;;4971521;28;20121;-78
2023/07/28 08:35:47;;;;;;;1.55;1.13;;;27.50;77.70;;;;;;4954891;28;20058;-78
2023/07/28 08:38:14;;;;;;;1.30;1.15;;;26.70;80.10;;;;;;4972012;28;20391;-78
2023/07/28 08:40:40;;;;;;;1.85;1.48;;;25.90;83.00;;;;;;4955049;28;20026;-79
2023/07/28 08:43:05;;;;;;;1.10;1.02;;;25.70;82.70;;;;;;4954879;28;20121;-78
2023/07/28 08:45:31;;;;;;;1.30;1.20;;;26.10;82.50;;;;;;4972221;28;20049;-77
2023/07/28 08:47:57;;;;;;;1.80;1.30;;;25.70;82.50;;;;;;4955114;28;20048;-78
2023/07/28 08:50:23;;;;;;;1.63;1.15;;;26.00;83.30;;;;;;4972447;28;20030;-78
2023/07/28 08:52:50;;;;;;;1.23;1.13;;;26.20;81.30;;;;;;4954512;28;20026;-77
2023/07/28 08:55:16;;;;;;;1.83;1.73;;;25.80;82.60;;;;;;4954550;28;20031;-77
2023/07/28 08:57:43;;;;;;;2.30;1.38;;;25.30;83.40;;;;;;4972402;28;20030;-78
2023/07/28 09:00:17;;;;;;;1.50;1.02;;;25.40;82.60;;;;;;4954608;28;20404;-77
2023/07/28 09:02:43;;;;;;;1.58;1.17;;;25.60;80.90;;;;;;4972151;28;20113;-78
2023/07/28 09:05:23;;;;;;;2.60;1.10;;;25.30;82.30;;;;;;4971748;28;20085;-77
2023/07/28 09:07:49;;;;;;;1.38;1.27;;;25.30;83.60;;;;;;4954362;28;20018;-78
2023/07/28 09:10:15;;;;;;;2.05;1.73;;;25.70;83.80;;;;;;4954405;28;20027;-77
2023/07/28 09:12:48;;;;;;;1.60;1.17;;;26.40;81.20;;;;;;4972079;28;20037;-77
2023/07/28 09:15:16;;;;;;;1.83;1.20;;;26.50;79.70;;;;;;4954239;28;20066;-78
2023/07/28 09:17:44;;;;;;;1.48;1.20;;;26.50;80.20;;;;;;4954263;28;20027;-77
2023/07/28 09:20:14;;;;;;;1.33;1.23;;;26.20;79.70;;;;;;4954460;28;20034;-78
2023/07/28 09:22:39;;;;;;;2.08;1.25;;;26.10;81.10;;;;;;4953783;28;20023;-78
2023/07/28 09:25:13;;;;;;;1.63;1.52;;;26.60;79.00;;;;;;4954075;28;20034;-77
2023/07/28 09:27:39;;;;;;;2.63;1.80;;;26.50;79.40;;;;;;4971252;28;20187;-78
2023/07/28 09:30:07;;;;;;;1.67;1.38;;;26.40;79.80;;;;;;4971541;28;20050;-78
2023/07/28 09:32:33;;;;;;;1.30;1.20;;;26.20;81.20;;;;;;4971448;28;20506;-77
2023/07/28 09:35:11;;;;;;;1.92;1.33;;;26.20;81.40;;;;;;4971404;28;20105;-78
2023/07/28 09:37:39;;;;;;;2.40;1.50;;;26.10;82.10;;;;;;4953565;28;20023;-78
2023/07/28 09:40:14;;;;;;;1.60;1.50;;;25.90;82.10;;;;;;4970180;28;20036;-78
2023/07/28 09:42:45;;;;;;;2.67;1.40;;;25.90;82.30;;;;;;4953819;28;20114;-78
2023/07/28 09:45:11;;;;;;;1.65;1.30;;;25.80;81.90;;;;;;4971408;28;20023;-78
2023/07/28 09:47:37;;;;;;;2.05;1.42;;;25.70;83.50;;;;;;4976873;28;20050;-78
2023/07/28 09:50:06;;;;;;;1.60;1.48;;;25.90;83.10;;;;;;4982317;28;20086;-78
2023/07/28 09:52:36;;;;;;;1.52;1.42;;;26.00;83.20;;;;;;4953950;28;20031;-78
2023/07/28 09:55:08;;;;;;;4.18;1.50;;;26.10;82.80;;;;;;4971045;28;20121;-78
2023/07/28 09:57:57;;;;;;;1.38;1.00;;;26.20;82.20;;;;;;4953409;28;20033;-78
2023/07/28 10:00:23;;;;;;;1.83;1.23;;;26.20;81.90;;;;;;4969779;28;20551;-78
2023/07/28 10:02:50;;;;;;;1.73;1.48;;;26.10;83.00;;;;;;4971172;28;20412;-77
2023/07/28 10:05:16;;;;;;;4.00;1.77;;;26.40;82.30;;;;;;4970992;28;20105;-78
2023/07/28 10:07:43;;;;;;;2.42;1.73;;;26.20;81.00;;;;;;4953212;28;20472;-78
2023/07/28 10:10:12;;;;;;;1.80;1.30;;;26.00;82.10;;;;;;4971364;28;20031;-78
2023/07/28 10:12:51;;;;;;;3.10;1.30;;;26.00;82.30;;;;;;4953523;28;20066;-78
2023/07/28 10:15:19;;;;;;;1.30;1.20;;;26.00;85.20;;;;;;4970975;28;20346;-78
2023/07/28 10:17:47;;;;;;;1.60;1.40;;;25.90;84.70;;;;;;4953501;28;20167;-78
2023/07/28 10:20:28;;;;;;;1.88;1.75;;;25.50;86.20;;;;;;4970867;28;20101;-78
2023/07/28 10:22:53;;;;;;;1.58;1.20;;;25.60;87.10;;;;;;4970402;28;20514;-78
2023/07/28 10:25:24;;;;;;;1.35;1.25;;;25.70;86.40;;;;;;4953352;28;20117;-78
2023/07/28 10:27:51;;;;;;;1.70;1.60;;;25.80;88.00;;;;;;4970998;28;20122;-78
2023/07/28 10:30:17;;;;;;;2.55;1.30;;;26.00;87.40;;;;;;4953246;28;20089;-78
2023/07/28 10:32:51;;;;;;;2.45;1.38;;;26.30;86.90;;;;;;4970513;28;20476;-78
2023/07/28 10:35:26;;;;;;;1.45;1.35;;;26.30;87.20;;;;;;4952543;28;20117;-77
2023/07/28 10:37:55;;;;;;;1.42;1.23;;;26.20;86.80;;;;;;4968578;28;20215;-77
2023/07/28 10:40:35;;;;;;;2.08;1.55;;;25.80;87.50;;;;;;4953166;28;20290;-77
2023/07/28 10:43:01;;;;;;;;;;;25.50;86.90;;;;;;4953704;28;20077;-78
2023/07/28 10:45:28;;;;;;;2.25;1.25;;;25.30;88.60;;;;;;4952991;28;19905;-78
2023/07/28 10:47:55;;;;;;;1.58;1.38;;;25.10;90.20;;;;;;4970440;28;20022;-77
2023/07/28 10:50:23;;;;;;;1.77;0.95;;;24.90;90.10;;;;;;4952968;28;20303;-78
2023/07/28 10:52:49;;;;;;;1.58;1.48;;;24.80;91.00;;;;;;4970108;28;20054;-78
2023/07/28 10:55:22;;;;;;;1.55;1.40;;;24.80;91.30;;;;;;4952913;28;20030;-78
2023/07/28 10:57:50;;;;;;;2.53;1.60;;;24.70;90.60;;;;;;4952843;28;20085;-78
2023/07/28 11:00:18;;;;;;;1.35;1.17;;;24.70;90.90;;;;;;4970383;28;20038;-78
2023/07/28 11:02:54;;;;;;;3.75;1.52;;;25.10;91.00;;;;;;4953032;28;20027;-78
2023/07/28 11:05:30;;;;;;;2.67;1.42;;;25.50;91.10;;;;;;4970166;28;20046;-78
2023/07/28 11:08:02;;;;;;;3.08;1.77;;;25.80;89.10;;;;;;4952487;28;20502;-78
2023/07/28 11:10:29;;;;;;;2.67;1.38;;;25.70;89.00;;;;;;4970174;28;20027;-78
2023/07/28 11:12:58;;;;;;;1.73;1.63;;;25.60;87.40;;;;;;4952503;28;20460;-78
2023/07/28 11:15:25;;;;;;;1.90;1.80;;;25.70;90.70;;;;;;4953112;28;20507;-78
2023/07/28 11:17:51;;;;;;;4.70;1.88;;;25.90;89.20;;;;;;4952888;28;20097;-78
2023/07/28 11:20:24;;;;;;;3.22;1.80;;;26.10;88.60;;;;;;4968746;28;20027;-78
2023/07/28 11:23:03;;;;;;;1.60;1.30;;;26.50;87.50;;;;;;4952459;28;20098;-78
2023/07/28 11:25:30;;;;;;;1.67;1.58;;;26.30;85.90;;;;;;4952557;28;20023;-78
2023/07/28 11:27:56;;;;;;;2.33;1.95;;;26.20;86.10;;;;;;4952307;28;20065;-78
2023/07/28 11:30:23;;;;;;;1.83;1.73;;;26.60;85.30;;;;;;4952504;28;20027;-78
2023/07/28 11:32:51;;;;;;;3.40;2.53;;;26.90;85.50;;;;;;4970014;28;20026;-78
2023/07/28 11:35:22;;;;;;;1.30;1.20;;;26.60;84.00;;;;;;4952738;28;20033;-78
2023/07/28 11:37:50;;;;;;;2.53;2.33;;;26.60;85.60;;;;;;4952329;28;20476;-78
2023/07/28 11:40:19;;;;;;;3.45;2.05;;;26.00;88.00;;;;;;4970115;28;20038;-79
2023/07/28 11:42:47;;;;;;;2.40;1.80;;;25.70;88.60;;;;;;4952464;28;20034;-78
2023/07/28 11:45:15;;;;;;;3.03;1.90;;;25.50;89.40;;;;;;4966760;28;20361;-78
2023/07/28 11:47:55;;;;;;;2.20;2.03;;;25.40;89.80;;;;;;4954815;28;20089;-78
2023/07/28 11:50:25;;;;;;;3.05;1.90;;;25.40;90.60;;;;;;4973920;28;20319;-78
2023/07/28 11:52:50;;;;;;;1.65;1.55;;;25.40;90.20;;;;;;4955917;28;20027;-78
2023/07/28 11:55:16;;;;;;;1.95;1.67;;;25.70;90.70;;;;;;4973488;28;20412;-78
2023/07/28 11:57:43;;;;;;;2.83;2.05;;;25.60;90.60;;;;;;4955782;28;20126;-78
2023/07/28 12:00:09;;;;;;;4.43;1.75;;;25.70;90.40;;;;;;4955816;28;20023;-78
2023/07/28 12:02:35;;;;;;;1.40;1.30;;;26.30;90.20;;;;;;4974381;28;20027;-78
2023/07/28 12:05:01;;;;;;;1.85;1.58;;;27.10;88.70;;;;;;4973325;28;20102;-78
2023/07/28 12:07:31;;;;;;;2.80;1.45;;;27.70;86.40;;;;;;4955317;28;20038;-78
2023/07/28 12:10:02;;;;;;;3.25;2.10;;;28.60;82.50;;;;;;4973059;28;20033;-78
2023/07/28 12:12:29;;;;;;;1.88;1.77;;;28.30;86.00;;;;;;4955732;28;20030;-78
2023/07/28 12:15:04;;;;;;;1.80;1.70;;;28.20;83.50;;;;;;4955736;28;20030;-78
2023/07/28 12:17:30;;;;;;;2.05;1.60;;;27.40;84.10;;;;;;4955461;28;20495;-77
2023/07/28 12:20:10;;;;;;;1.60;1.50;;;26.50;87.20;;;;;;4955317;28;20419;-78
2023/07/28 12:22:37;;;;;;;1.83;1.73;;;26.60;87.30;;;;;;4955048;28;20031;-78
2023/07/28 12:25:04;;;;;;;1.67;1.58;;;26.40;86.00;;;;;;4971401;28;20602;-78
2023/07/28 12:27:30;;;;;;;2.28;1.63;;;26.70;88.00;;;;;;4955630;28;20030;-78
2023/07/28 12:29:56;;;;;;;1.55;1.45;;;27.30;86.50;;;;;;4972700;28;20522;-78
2023/07/28 12:32:21;;;;;;;2.13;1.80;;;28.10;88.00;;;;;;4972677;28;20027;-78
2023/07/28 12:34:49;;;;;;;1.92;1.80;;;28.20;82.60;;;;;;4972945;28;20022;-78
2023/07/28 12:37:14;;;;;;;1.92;1.23;;;27.70;82.80;;;;;;4959267;28;20030;-81
2023/07/28 12:39:40;;;;;;;1.30;1.20;;;27.70;84.70;;;;;;4964058;28;20050;-78
2023/07/28 12:42:09;;;;;;;1.83;1.52;;;27.70;83.40;;;;;;4975408;28;20022;-78
2023/07/28 12:44:35;;;;;;;;;;;27.90;81.60;;;;;;4955452;28;20035;-78
2023/07/28 12:47:01;;;;;;;1.60;1.50;;;27.70;85.00;;;;;;4954966;28;19960;-77